Time;durP1;ratioP1;P1;durP2;ratioP2;P2;SDS_P1;SDS_P2;PMS_P1;PMS_P2;Temp;Humidity;BMP_temperature;BMP_pressure;BME280_temperature;BME280_humidity;BME280_pressure;Samples;Min_cycle;Max_cycle;Signal;HPM_P1;HPM_P2
2023/06/24 00:02:54;;;;;;;8.60;5.00;;;;;;;17.60;78.86;100264.38;131161;1253;107337;-81
2023/06/24 00:06:03;;;;;;;7.30;4.90;;;;;;;17.61;79.04;100263.64;131051;1251;107322;-81
2023/06/24 00:09:09;;;;;;;7.50;4.70;;;;;;;17.63;79.02;100264.89;131148;1254;107472;-81
2023/06/24 00:12:18;;;;;;;7.10;5.10;;;;;;;17.65;79.10;100264.36;131160;1254;107249;-82
2023/06/24 00:15:24;;;;;;;5.20;4.60;;;;;;;17.65;79.19;100263.13;131120;1251;107463;-81
2023/06/24 00:18:30;;;;;;;5.40;4.30;;;;;;;17.62;78.95;100264.98;131042;1251;107242;-82
2023/06/24 00:21:37;;;;;;;5.70;4.60;;;;;;;17.60;78.91;100267.58;131119;1250;107523;-81
2023/06/24 00:24:43;;;;;;;5.60;4.50;;;;;;;17.61;78.94;100273.71;130973;1255;107527;-81
2023/06/24 00:27:49;;;;;;;6.30;4.70;;;;;;;17.61;79.06;100279.88;131193;1254;107440;-81
2023/06/24 00:30:55;;;;;;;6.00;4.30;;;;;;;17.60;79.13;100283.64;131064;1251;107241;-81
2023/06/24 00:34:00;;;;;;;6.30;4.70;;;;;;;17.61;79.02;100295.86;131055;1254;107488;-81
2023/06/24 00:37:06;;;;;;;7.60;4.70;;;;;;;17.63;79.20;100301.05;131118;1250;107522;-81
2023/06/24 00:40:15;;;;;;;5.20;4.60;;;;;;;17.60;79.16;100307.55;131106;1254;107272;-81
2023/06/24 00:43:20;;;;;;;5.70;4.80;;;;;;;17.60;79.22;100316.48;130973;1267;107508;-81
2023/06/24 00:46:26;;;;;;;6.70;4.40;;;;;;;17.58;79.29;100314.73;131064;1254;106694;-81
2023/06/24 00:49:33;;;;;;;6.20;4.60;;;;;;;17.56;79.24;100318.94;130904;1254;107531;-81
2023/06/24 00:52:42;;;;;;;5.50;4.40;;;;;;;17.61;79.28;100317.89;130974;1250;109328;-81
2023/06/24 00:55:48;;;;;;;5.70;4.40;;;;;;;17.64;79.05;100312.21;130996;1255;107394;-81
2023/06/24 00:58:55;;;;;;;6.10;4.80;;;;;;;17.69;79.06;100314.17;131038;1254;107349;-81
2023/06/24 01:02:04;;;;;;;5.30;4.50;;;;;;;17.72;79.11;100322.53;131008;1250;107371;-82
2023/06/24 01:05:14;;;;;;;5.90;4.60;;;;;;;17.73;79.10;100323.70;131054;1254;107437;-81
2023/06/24 01:08:22;;;;;;;7.30;4.60;;;;;;;17.74;79.25;100316.89;131027;1257;107507;-81
2023/06/24 01:11:28;;;;;;;5.90;4.40;;;;;;;17.76;79.15;100312.84;131115;1255;107415;-81
2023/06/24 01:14:34;;;;;;;6.40;4.50;;;;;;;17.79;79.16;100311.60;131278;1251;107437;-82
2023/06/24 01:17:47;;;;;;;5.50;4.70;;;;;;;17.85;79.18;100312.39;131312;1254;107488;-81
2023/06/24 01:20:57;;;;;;;6.20;4.90;;;;;;;17.83;79.04;100312.27;131377;1256;107512;-81
2023/06/24 01:24:32;;;;;;;6.90;5.10;;;;;;;17.76;79.19;100311.13;131344;1254;107357;-82
2023/06/24 01:28:20;;;;;;;6.00;5.10;;;;;;;17.66;79.30;100306.59;133223;1250;107555;-82
2023/06/24 01:31:38;;;;;;;6.10;4.70;;;;;;;17.55;79.61;100297.73;130975;1255;106559;-81
2023/06/24 01:34:49;;;;;;;6.40;4.90;;;;;;;17.47;79.62;100299.23;131076;1255;107532;-81
2023/06/24 01:37:59;;;;;;;5.80;4.40;;;;;;;17.44;79.71;100306.29;131350;1250;107528;-81
2023/06/24 01:41:07;;;;;;;5.20;4.50;;;;;;;17.46;79.76;100309.98;131345;1249;107419;-82
2023/06/24 01:44:16;;;;;;;5.90;4.20;;;;;;;17.52;79.91;100313.10;131331;1254;107500;-81
2023/06/24 01:47:30;;;;;;;6.40;5.10;;;;;;;17.62;79.86;100322.72;131303;1254;107399;-82
2023/06/24 01:50:38;;;;;;;7.00;5.60;;;;;;;17.69;79.87;100327.48;131139;1253;107488;-82
2023/06/24 01:53:49;;;;;;;5.60;4.80;;;;;;;17.71;79.68;100333.53;131339;1251;107209;-82
2023/06/24 01:56:58;;;;;;;6.10;4.70;;;;;;;17.72;79.58;100331.55;131093;1256;107525;-82
2023/06/24 02:00:07;;;;;;;5.60;4.40;;;;;;;17.71;79.84;100329.51;130963;1257;107572;-82
2023/06/24 02:03:29;;;;;;;5.90;4.60;;;;;;;17.66;79.74;100333.50;131216;1253;107457;-82
2023/06/24 02:06:36;;;;;;;6.20;5.00;;;;;;;17.63;79.90;100335.30;131033;1250;204981;-82
2023/06/24 02:09:44;;;;;;;5.60;4.70;;;;;;;17.64;79.88;100337.75;131229;1256;107435;-82
2023/06/24 02:12:54;;;;;;;7.40;4.70;;;;;;;17.62;79.78;100341.48;131263;1254;106957;-82
2023/06/24 02:16:02;;;;;;;5.50;4.70;;;;;;;17.62;79.82;100343.30;131205;1255;107498;-82
2023/06/24 02:19:10;;;;;;;5.70;5.10;;;;;;;17.62;79.87;100343.67;131419;1251;107571;-83
2023/06/24 02:22:18;;;;;;;5.80;4.80;;;;;;;17.58;79.86;100345.02;131242;1251;107526;-82
2023/06/24 02:25:24;;;;;;;6.00;4.70;;;;;;;17.55;80.05;100350.31;131081;1251;107437;-82
2023/06/24 02:28:31;;;;;;;8.60;5.30;;;;;;;17.54;80.23;100358.35;131187;1253;107553;-82
2023/06/24 02:31:36;;;;;;;5.70;4.70;;;;;;;17.54;80.00;100365.63;131177;1252;107397;-82
2023/06/24 02:34:42;;;;;;;6.10;4.50;;;;;;;17.57;80.04;100373.41;131341;1253;108684;-82
2023/06/24 02:37:48;;;;;;;4.80;4.10;;;;;;;17.58;80.14;100373.91;131426;1252;107570;-82
2023/06/24 02:40:56;;;;;;;6.10;4.70;;;;;;;17.60;80.03;100375.52;131371;1254;107469;-82
2023/06/24 02:44:02;;;;;;;6.30;4.80;;;;;;;17.58;80.08;100378.90;131181;1253;107518;-82
2023/06/24 02:47:12;;;;;;;5.80;4.60;;;;;;;17.61;80.05;100381.98;131101;1251;106626;-82
2023/06/24 02:50:18;;;;;;;6.20;4.30;;;;;;;17.69;79.97;100382.67;131126;1253;107486;-82
2023/06/24 02:53:25;;;;;;;7.60;5.20;;;;;;;17.71;79.89;100387.83;131271;1253;107438;-82
2023/06/24 02:56:31;;;;;;;8.10;4.70;;;;;;;17.71;79.82;100391.09;131034;1256;107430;-82
2023/06/24 02:59:37;;;;;;;8.30;5.40;;;;;;;17.71;79.81;100387.84;131064;1256;107495;-82
2023/06/24 03:02:46;;;;;;;8.20;4.70;;;;;;;17.71;79.71;100394.27;131022;1256;107463;-82
2023/06/24 03:05:54;;;;;;;5.10;4.50;;;;;;;17.74;79.92;100393.54;131010;1251;107233;-82
2023/06/24 03:09:00;;;;;;;5.70;4.50;;;;;;;17.81;80.05;100391.55;131042;1254;107528;-82
2023/06/24 03:12:08;;;;;;;5.30;4.00;;;;;;;17.88;80.06;100394.08;131087;1251;107504;-82
2023/06/24 03:15:19;;;;;;;4.70;4.10;;;;;;;17.97;80.02;100394.17;131059;1254;107341;-82
2023/06/24 03:18:25;;;;;;;5.00;4.20;;;;;;;18.06;79.99;100395.73;131075;1250;106120;-82
2023/06/24 03:21:30;;;;;;;7.90;4.30;;;;;;;18.15;80.01;100399.73;131186;1251;107742;-82
2023/06/24 03:24:44;;;;;;;4.90;4.40;;;;;;;18.22;79.99;100401.27;131117;1255;107498;-82
2023/06/24 03:27:50;;;;;;;5.00;4.40;;;;;;;18.26;79.89;100402.54;131089;1256;107472;-82
2023/06/24 03:30:56;;;;;;;6.20;5.00;;;;;;;18.26;79.70;100401.79;131058;1254;107374;-82
2023/06/24 03:34:01;;;;;;;7.50;4.70;;;;;;;18.22;79.60;100400.10;131071;1254;106510;-82
2023/06/24 03:37:08;;;;;;;8.80;5.10;;;;;;;18.21;79.89;100403.70;131149;1250;107334;-82
2023/06/24 03:40:15;;;;;;;6.70;4.60;;;;;;;18.20;79.65;100406.36;131230;1254;107531;-82
2023/06/24 03:43:21;;;;;;;6.30;4.80;;;;;;;18.10;79.65;100406.19;131343;1256;107482;-82
2023/06/24 03:46:32;;;;;;;7.00;5.70;;;;;;;18.05;79.79;100407.19;131200;1254;107451;-82
2023/06/24 03:49:38;;;;;;;6.20;5.40;;;;;;;18.03;79.94;100404.77;131038;1254;107529;-81
2023/06/24 03:52:44;;;;;;;7.70;5.50;;;;;;;18.05;79.86;100403.29;131078;1254;107598;-81
2023/06/24 03:55:50;;;;;;;6.40;5.70;;;;;;;18.05;80.05;100402.38;131130;1255;106683;-81
2023/06/24 03:58:57;;;;;;;7.90;6.10;;;;;;;18.08;79.98;100401.98;131304;1254;107338;-81
2023/06/24 04:02:07;;;;;;;7.30;4.90;;;;;;;18.08;80.17;100402.17;131066;1255;107537;-81
2023/06/24 04:05:13;;;;;;;5.40;4.50;;;;;;;18.09;80.30;100400.77;131118;1253;107513;-81
2023/06/24 04:08:19;;;;;;;6.20;5.10;;;;;;;18.15;80.30;100405.80;131125;1253;107246;-82
2023/06/24 04:11:25;;;;;;;7.30;5.80;;;;;;;18.21;80.44;100403.84;131062;1253;108524;-81
2023/06/24 04:14:30;;;;;;;7.20;5.70;;;;;;;18.24;80.49;100401.56;131066;1253;107523;-81
2023/06/24 04:17:36;;;;;;;7.30;5.80;;;;;;;18.26;80.72;100402.50;131033;1251;107266;-80
2023/06/24 04:20:42;;;;;;;6.70;5.80;;;;;;;18.28;80.83;100402.75;131111;1253;107471;-81
2023/06/24 04:23:47;;;;;;;6.80;5.70;;;;;;;18.31;81.15;100403.02;131222;1254;107504;-81
2023/06/24 04:26:53;;;;;;;8.10;5.00;;;;;;;18.33;81.20;100408.64;131088;1250;107488;-81
2023/06/24 04:29:58;;;;;;;6.60;5.50;;;;;;;18.43;81.18;100411.46;131072;1251;109135;-81
2023/06/24 04:33:04;;;;;;;8.80;5.60;;;;;;;18.55;81.41;100413.67;131029;1256;107418;-81
2023/06/24 04:36:10;;;;;;;9.30;6.30;;;;;;;18.68;81.28;100415.69;131116;1265;106193;-82
2023/06/24 04:39:16;;;;;;;7.10;5.90;;;;;;;18.76;81.37;100420.34;131249;1253;107478;-81
2023/06/24 04:42:22;;;;;;;7.20;6.40;;;;;;;18.80;81.55;100420.32;131338;1251;106473;-81
2023/06/24 04:45:28;;;;;;;7.60;5.60;;;;;;;18.84;81.57;100424.13;131448;1253;107160;-81
2023/06/24 04:48:33;;;;;;;10.40;6.50;;;;;;;18.93;81.56;100426.48;131287;1253;106897;-81
2023/06/24 04:51:40;;;;;;;7.40;6.60;;;;;;;19.04;81.82;100431.29;131144;1253;107427;-81
2023/06/24 04:54:46;;;;;;;7.00;5.70;;;;;;;19.17;81.62;100430.28;131234;1253;108704;-81
2023/06/24 04:57:51;;;;;;;7.60;6.70;;;;;;;19.27;81.56;100436.55;131187;1253;107448;-81
2023/06/24 05:00:57;;;;;;;7.60;6.70;;;;;;;19.28;81.49;100434.05;131158;1253;107436;-81
2023/06/24 05:04:03;;;;;;;7.20;6.40;;;;;;;19.30;81.54;100434.05;131174;1257;107526;-81
2023/06/24 05:07:09;;;;;;;7.60;6.10;;;;;;;19.28;81.69;100443.20;131048;1250;105641;-81
2023/06/24 05:10:14;;;;;;;7.30;6.00;;;;;;;19.31;81.93;100442.92;131454;1255;107331;-81
2023/06/24 05:13:20;;;;;;;8.50;6.50;;;;;;;19.38;81.73;100442.77;131195;1255;107493;-81
2023/06/24 05:16:25;;;;;;;8.60;6.80;;;;;;;19.44;81.53;100447.85;131184;1254;107504;-82
2023/06/24 05:19:31;;;;;;;7.40;6.70;;;;;;;19.48;81.39;100451.73;131102;1255;106073;-81
2023/06/24 05:22:37;;;;;;;7.10;6.20;;;;;;;19.54;81.49;100454.02;131153;1256;107460;-81
2023/06/24 05:25:42;;;;;;;6.40;5.60;;;;;;;19.69;81.32;100461.33;131143;1256;107519;-81
2023/06/24 05:28:48;;;;;;;7.10;6.20;;;;;;;19.88;81.14;100467.96;131132;1251;107480;-81
2023/06/24 05:31:53;;;;;;;9.70;6.60;;;;;;;19.96;80.61;100473.17;131196;1257;108752;-81
2023/06/24 05:34:59;;;;;;;7.50;6.70;;;;;;;19.95;80.50;100475.45;131077;1251;107498;-82
2023/06/24 05:38:05;;;;;;;10.50;6.80;;;;;;;19.94;80.48;100475.75;131145;1255;106800;-82
2023/06/24 05:41:11;;;;;;;8.80;6.70;;;;;;;19.97;80.36;100478.67;131314;1256;107406;-82
2023/06/24 05:44:17;;;;;;;8.80;6.50;;;;;;;19.99;80.61;100483.37;131130;1256;107824;-81
2023/06/24 05:47:26;;;;;;;8.00;6.20;;;;;;;20.08;80.34;100484.49;131396;1256;106403;-81
2023/06/24 05:50:35;;;;;;;7.10;6.40;;;;;;;20.11;80.30;100487.48;131224;1250;108344;-78
2023/06/24 05:53:41;;;;;;;9.30;7.10;;;;;;;20.15;80.24;100486.89;131122;1256;107486;-78
2023/06/24 05:56:46;;;;;;;9.30;7.20;;;;;;;20.21;79.94;100480.77;130999;1260;107519;-78
2023/06/24 05:59:52;;;;;;;8.00;6.90;;;;;;;20.29;80.21;100483.38;131057;1256;107459;-78
2023/06/24 06:02:57;;;;;;;7.10;6.40;;;;;;;20.39;80.01;100483.08;130953;1256;107549;-76
2023/06/24 06:06:03;;;;;;;7.80;6.70;;;;;;;20.52;79.88;100483.77;130925;1256;107204;-77
2023/06/24 06:09:09;;;;;;;7.90;6.30;;;;;;;20.64;79.43;100485.23;130990;1251;107600;-77
2023/06/24 06:12:14;;;;;;;8.10;6.60;;;;;;;20.75;78.68;100487.48;131720;1253;107484;-79
2023/06/24 06:15:20;;;;;;;8.50;6.90;;;;;;;20.86;78.49;100490.20;131095;1253;107536;-77
2023/06/24 06:18:26;;;;;;;8.10;7.00;;;;;;;21.01;78.18;100493.48;131110;1253;107487;-75
2023/06/24 06:21:31;;;;;;;8.00;7.20;;;;;;;21.02;77.61;100496.52;131104;1253;107834;-77
2023/06/24 06:24:37;;;;;;;9.00;7.10;;;;;;;21.04;78.14;100493.80;131111;1253;107244;-78
2023/06/24 06:27:42;;;;;;;11.40;7.50;;;;;;;21.05;77.62;100499.54;131085;1252;107464;-77
2023/06/24 06:30:48;;;;;;;9.20;6.70;;;;;;;20.97;77.39;100502.33;131011;1253;107499;-76
2023/06/24 06:33:53;;;;;;;7.60;6.50;;;;;;;21.00;77.62;100502.79;131273;1251;107465;-77
2023/06/24 06:36:59;;;;;;;9.20;6.20;;;;;;;21.02;77.97;100508.70;131309;1251;107350;-77
2023/06/24 06:40:06;;;;;;;7.60;6.10;;;;;;;21.15;77.67;100506.88;131172;1253;107575;-77
2023/06/24 06:43:11;;;;;;;7.40;6.30;;;;;;;21.25;76.44;100502.77;131278;1253;107518;-77
2023/06/24 06:46:17;;;;;;;7.80;6.40;;;;;;;21.31;76.49;100507.46;131328;1251;107660;-77
2023/06/24 06:49:23;;;;;;;7.70;6.10;;;;;;;21.41;75.39;100512.42;131098;1253;107546;-76
2023/06/24 06:52:28;;;;;;;7.00;5.70;;;;;;;21.36;74.55;100515.62;131009;1253;107601;-76
2023/06/24 06:55:34;;;;;;;6.80;5.90;;;;;;;21.42;75.13;100513.00;131141;1253;106693;-77
2023/06/24 06:58:40;;;;;;;7.60;5.30;;;;;;;21.50;74.93;100512.55;131108;1251;108373;-78
2023/06/24 07:01:46;;;;;;;6.00;5.10;;;;;;;21.54;73.13;100511.53;131155;1251;107561;-79
2023/06/24 07:04:52;;;;;;;5.10;4.60;;;;;;;21.50;72.51;100511.09;131220;1257;107501;-78
2023/06/24 07:07:57;;;;;;;6.30;4.50;;;;;;;21.56;71.21;100510.27;131045;1256;107683;-78
2023/06/24 07:11:03;;;;;;;5.50;4.60;;;;;;;21.66;71.40;100507.64;131273;1264;107535;-78
2023/06/24 07:14:08;;;;;;;5.40;4.50;;;;;;;21.73;71.79;100513.65;131238;1254;107614;-78
2023/06/24 07:17:14;;;;;;;4.70;4.20;;;;;;;21.84;70.07;100518.38;131050;1263;107504;-76
2023/06/24 07:20:20;;;;;;;5.50;4.40;;;;;;;21.89;69.59;100517.76;131017;1253;108080;-76
2023/06/24 07:23:25;;;;;;;5.90;4.30;;;;;;;21.84;66.41;100521.97;131084;1253;107607;-76
2023/06/24 07:26:31;;;;;;;5.30;4.60;;;;;;;21.78;65.97;100522.92;131126;1253;107370;-76
2023/06/24 07:29:37;;;;;;;4.70;4.10;;;;;;;21.85;68.12;100522.46;131062;1251;108153;-76
2023/06/24 07:32:42;;;;;;;5.00;4.50;;;;;;;21.96;66.98;100514.30;131090;1253;107501;-79
2023/06/24 07:35:48;;;;;;;4.80;4.20;;;;;;;22.04;66.53;100514.61;131043;1253;106504;-76
2023/06/24 07:38:53;;;;;;;5.00;4.50;;;;;;;22.15;66.40;100517.74;131105;1251;107236;-76
2023/06/24 07:41:59;;;;;;;4.50;4.00;;;;;;;22.24;66.25;100519.38;131114;1254;105774;-75
2023/06/24 07:45:06;;;;;;;4.90;4.30;;;;;;;22.30;64.64;100521.23;131043;1253;106908;-76
2023/06/24 07:48:11;;;;;;;4.50;4.10;;;;;;;22.24;63.94;100520.73;131074;1256;107344;-77
2023/06/24 07:51:20;;;;;;;5.00;4.20;;;;;;;22.26;63.81;100520.21;131079;1257;107972;-76
2023/06/24 07:54:30;;;;;;;5.30;4.30;;;;;;;22.33;64.68;100520.40;131081;1256;108138;-76
2023/06/24 07:57:35;;;;;;;4.70;4.10;;;;;;;22.42;64.06;100522.73;131013;1255;107408;-77
2023/06/24 08:00:42;;;;;;;6.10;4.50;;;;;;;22.45;63.32;100525.23;130983;1257;107516;-79
2023/06/24 08:03:48;;;;;;;4.50;4.10;;;;;;;22.48;64.07;100525.43;131134;1251;107313;-78
2023/06/24 08:06:54;;;;;;;7.00;4.40;;;;;;;22.61;63.93;100524.92;131062;1253;107634;-77
2023/06/24 08:09:59;;;;;;;6.20;4.10;;;;;;;22.66;63.79;100524.23;131134;1251;107238;-77
2023/06/24 08:13:05;;;;;;;5.00;4.50;;;;;;;22.73;62.82;100526.22;131137;1253;107534;-77
2023/06/24 08:16:10;;;;;;;7.20;4.60;;;;;;;22.80;62.60;100524.29;131069;1253;107533;-77
2023/06/24 08:19:16;;;;;;;6.50;4.70;;;;;;;22.84;62.44;100526.16;131015;1254;107259;-77
2023/06/24 08:22:21;;;;;;;5.00;4.50;;;;;;;22.90;62.83;100527.14;131261;1251;107524;-77
2023/06/24 08:25:27;;;;;;;5.60;4.60;;;;;;;23.02;64.10;100533.20;131070;1253;107250;-77
2023/06/24 08:28:32;;;;;;;5.50;5.00;;;;;;;23.22;63.97;100529.77;131395;1251;107483;-77
2023/06/24 08:31:38;;;;;;;5.20;4.70;;;;;;;23.44;63.66;100532.58;131281;1254;105739;-77
2023/06/24 08:34:43;;;;;;;5.90;5.30;;;;;;;23.56;63.33;100538.48;131084;1255;108016;-79
2023/06/24 08:37:49;;;;;;;7.30;5.20;;;;;;;23.42;60.60;100545.95;131120;1251;107255;-79
2023/06/24 08:40:54;;;;;;;6.20;4.70;;;;;;;23.27;61.98;100550.59;131158;1253;107507;-79
2023/06/24 08:44:03;;;;;;;6.40;4.80;;;;;;;23.22;61.64;100552.30;131210;1254;107619;-79
2023/06/24 08:47:09;;;;;;;4.80;4.30;;;;;;;23.09;61.77;100557.45;131171;1253;107442;-78
2023/06/24 08:50:17;;;;;;;5.70;5.10;;;;;;;23.01;61.40;100567.42;131141;1253;107616;-79
2023/06/24 08:53:23;;;;;;;6.30;5.30;;;;;;;22.81;61.35;100569.27;131280;1254;107256;-79
2023/06/24 08:56:29;;;;;;;6.40;5.00;;;;;;;22.62;61.48;100573.99;131221;1263;107560;-79
2023/06/24 08:59:36;;;;;;;7.60;5.90;;;;;;;22.41;62.24;100580.23;131046;1256;107561;-77
2023/06/24 09:02:42;;;;;;;6.30;5.40;;;;;;;22.21;63.39;100581.30;131077;1256;106514;-77
2023/06/24 09:05:48;;;;;;;7.00;6.10;;;;;;;22.09;64.41;100582.88;131015;1251;107526;-77
2023/06/24 09:08:58;;;;;;;9.30;7.20;;;;;;;22.03;65.42;100589.45;131074;1256;106641;-77
2023/06/24 09:12:04;;;;;;;7.90;7.10;;;;;;;21.89;65.81;100590.35;131043;1254;107517;-77
2023/06/24 09:15:16;;;;;;;7.20;6.50;;;;;;;21.72;66.18;100590.95;131117;1251;107517;-77
2023/06/24 09:18:31;;;;;;;7.60;6.70;;;;;;;21.72;66.73;100593.46;131038;1251;107628;-78
2023/06/24 09:21:38;;;;;;;10.10;6.60;;;;;;;21.71;67.11;100595.64;131036;1263;108085;-77
2023/06/24 09:24:46;;;;;;;7.50;6.70;;;;;;;21.77;67.55;100594.06;131072;1256;107230;-78
2023/06/24 09:27:52;;;;;;;7.90;6.80;;;;;;;21.77;67.73;100598.03;131019;1253;107442;-78
2023/06/24 09:31:08;;;;;;;9.40;7.80;;;;;;;21.70;68.05;100594.44;131017;1251;107495;-77
2023/06/24 09:34:16;;;;;;;10.50;8.80;;;;;;;21.70;68.71;100597.48;131011;1263;107481;-77
2023/06/24 09:37:30;;;;;;;11.60;8.90;;;;;;;21.70;68.85;100597.48;131019;1254;107428;-78
2023/06/24 09:40:40;;;;;;;11.70;9.60;;;;;;;21.74;69.03;100595.51;131079;1253;107369;-77
2023/06/24 09:43:45;;;;;;;13.00;10.40;;;;;;;21.74;69.35;100598.30;131013;1251;107489;-77
2023/06/24 09:46:52;;;;;;;12.80;9.30;;;;;;;21.76;69.66;100598.01;131403;1256;107524;-79
2023/06/24 09:49:58;;;;;;;8.90;8.00;;;;;;;21.74;69.80;100598.31;131424;1257;106763;-77
2023/06/24 09:53:04;;;;;;;8.50;7.60;;;;;;;21.80;69.98;100599.79;131069;1253;107623;-77
2023/06/24 09:56:11;;;;;;;10.30;8.50;;;;;;;21.88;70.00;100601.14;131171;1263;107386;-80
2023/06/24 09:59:20;;;;;;;11.30;7.80;;;;;;;21.95;70.17;100605.83;131502;1253;107524;-78
2023/06/24 10:02:26;;;;;;;8.90;8.00;;;;;;;22.05;70.39;100606.80;131172;1263;107445;-78
2023/06/24 10:05:32;;;;;;;10.80;8.40;;;;;;;22.12;70.21;100610.45;131214;1253;107258;-78
2023/06/24 10:08:37;;;;;;;9.70;8.00;;;;;;;22.19;70.18;100607.94;131199;1254;107535;-78
2023/06/24 10:11:43;;;;;;;10.20;8.10;;;;;;;22.24;70.38;100607.29;131209;1254;106990;-78
2023/06/24 10:14:49;;;;;;;10.40;8.10;;;;;;;22.25;70.33;100607.27;131221;1254;106471;-78
2023/06/24 10:17:55;;;;;;;10.70;9.10;;;;;;;22.24;70.21;100610.71;131212;1263;107455;-78
2023/06/24 10:21:00;;;;;;;9.70;8.30;;;;;;;22.16;70.34;100610.71;131010;1253;107596;-77
2023/06/24 10:24:07;;;;;;;9.40;8.20;;;;;;;22.14;70.76;100609.39;131078;1256;107632;-78
2023/06/24 10:27:17;;;;;;;8.60;7.70;;;;;;;22.16;70.60;100611.59;131031;1263;107371;-78
2023/06/24 10:30:27;;;;;;;10.10;8.10;;;;;;;22.18;70.82;100606.52;131067;1254;106990;-78
2023/06/24 10:33:37;;;;;;;8.60;7.70;;;;;;;22.17;70.86;100605.57;131117;1261;108353;-78
2023/06/24 10:36:42;;;;;;;10.50;8.40;;;;;;;22.17;71.03;100602.55;131140;1257;107577;-78
2023/06/24 10:39:53;;;;;;;10.00;7.90;;;;;;;22.21;70.88;100602.20;131388;1261;107505;-78
2023/06/24 10:43:00;;;;;;;8.90;7.80;;;;;;;22.26;71.19;100602.20;131417;1264;107534;-78
2023/06/24 10:46:20;;;;;;;9.50;7.30;;;;;;;22.36;71.11;100601.73;131061;1264;108113;-79
2023/06/24 10:49:25;;;;;;;8.80;7.50;;;;;;;22.45;71.00;100602.64;131034;1257;107352;-79
2023/06/24 10:52:32;;;;;;;7.90;6.80;;;;;;;22.47;71.02;100602.73;131076;1255;107530;-79
2023/06/24 10:55:38;;;;;;;7.70;6.90;;;;;;;22.48;70.93;100600.32;131146;1256;107602;-79
2023/06/24 10:58:57;;;;;;;8.30;7.50;;;;;;;22.58;70.84;100600.19;131210;1263;106688;-78
2023/06/24 11:02:03;;;;;;;8.20;7.40;;;;;;;22.69;71.11;100600.20;131364;1256;105701;-78
2023/06/24 11:05:09;;;;;;;7.00;6.30;;;;;;;22.83;70.99;100601.02;131094;1253;107536;-79
2023/06/24 11:08:15;;;;;;;7.60;6.20;;;;;;;22.98;70.46;100601.98;131038;1254;106734;-78
2023/06/24 11:11:23;;;;;;;7.00;6.00;;;;;;;23.13;70.68;100597.73;131388;1253;107503;-82
2023/06/24 11:14:28;;;;;;;6.40;5.80;;;;;;;23.32;70.54;100592.89;131389;1254;107163;-79
2023/06/24 11:17:35;;;;;;;9.40;5.70;;;;;;;23.49;69.87;100597.65;131285;1259;107467;-78
2023/06/24 11:20:42;;;;;;;7.70;6.00;;;;;;;23.70;69.76;100596.11;131163;1253;106289;-80
2023/06/24 11:23:47;;;;;;;7.10;5.20;;;;;;;23.92;69.11;100595.82;131469;1255;106996;-81
2023/06/24 11:26:53;;;;;;;6.30;5.00;;;;;;;24.06;69.14;100588.06;131499;1251;107586;-79
2023/06/24 11:30:02;;;;;;;6.70;5.50;;;;;;;24.23;68.74;100583.30;131252;1256;107448;-78
2023/06/24 11:33:08;;;;;;;6.30;4.90;;;;;;;24.31;68.13;100582.52;131337;1252;107389;-79
2023/06/24 11:36:13;;;;;;;5.60;4.80;;;;;;;24.40;67.30;100581.32;131262;1257;107432;-79
2023/06/24 11:39:26;;;;;;;5.30;4.50;;;;;;;24.46;67.41;100580.37;131371;1264;107504;-79
2023/06/24 11:42:32;;;;;;;6.60;4.50;;;;;;;24.60;66.96;100578.64;131389;1257;108945;-80
2023/06/24 11:45:38;;;;;;;8.90;5.20;;;;;;;24.70;66.46;100573.06;131293;1264;105717;-79
2023/06/24 11:48:44;;;;;;;6.60;4.40;;;;;;;24.75;66.01;100573.45;131253;1262;107593;-79
2023/06/24 11:51:52;;;;;;;12.30;8.50;;;;;;;24.84;66.07;100574.19;131166;1257;107432;-79
2023/06/24 11:54:58;;;;;;;7.00;5.60;;;;;;;24.95;65.82;100575.58;131084;1257;106802;-78
2023/06/24 11:58:05;;;;;;;5.40;4.50;;;;;;;25.07;64.34;100578.40;131007;1264;106975;-79
2023/06/24 12:01:11;;;;;;;7.20;6.30;;;;;;;25.07;64.34;100576.09;131068;1264;107363;-78
2023/06/24 12:04:17;;;;;;;5.80;4.60;;;;;;;25.13;63.61;100576.31;131115;1253;107453;-79
2023/06/24 12:07:22;;;;;;;4.40;4.00;;;;;;;25.01;59.86;100575.42;131077;1254;107517;-78
2023/06/24 12:10:29;;;;;;;4.80;3.40;;;;;;;24.67;58.30;100581.95;131116;1254;107634;-79
2023/06/24 12:13:35;;;;;;;3.90;3.50;;;;;;;24.56;58.78;100581.15;131150;1253;107824;-78
2023/06/24 12:16:41;;;;;;;4.60;3.60;;;;;;;24.44;58.72;100588.64;131100;1254;107512;-83
2023/06/24 12:19:46;;;;;;;3.90;2.90;;;;;;;24.36;57.61;100592.10;131138;1253;107532;-79
2023/06/24 12:22:52;;;;;;;4.30;3.30;;;;;;;24.31;55.39;100595.86;131135;1251;106529;-79
2023/06/24 12:25:57;;;;;;;3.50;3.10;;;;;;;24.03;53.33;100600.42;131159;1263;107550;-79
2023/06/24 12:29:03;;;;;;;3.20;2.90;;;;;;;23.88;53.65;100602.05;131326;1254;106947;-80
2023/06/24 12:32:10;;;;;;;4.80;3.00;;;;;;;23.79;53.24;100603.55;131164;1254;107551;-81
2023/06/24 12:35:15;;;;;;;4.60;3.10;;;;;;;23.69;53.98;100605.92;131208;1263;107464;-80
2023/06/24 12:38:21;;;;;;;3.20;2.90;;;;;;;23.58;53.13;100605.64;131329;1263;107651;-80
2023/06/24 12:41:28;;;;;;;3.40;2.90;;;;;;;23.37;51.93;100609.96;131484;1264;107493;-80
2023/06/24 12:44:33;;;;;;;4.00;3.20;;;;;;;23.20;50.58;100615.14;131288;1256;107242;-80
2023/06/24 12:47:39;;;;;;;3.10;2.80;;;;;;;23.07;51.09;100618.52;131314;1257;107596;-79
2023/06/24 12:50:45;;;;;;;4.20;3.00;;;;;;;22.98;51.01;100616.60;131342;1264;107434;-80
2023/06/24 12:53:50;;;;;;;4.00;3.20;;;;;;;22.82;51.51;100620.50;131314;1257;107502;-80
2023/06/24 12:56:57;;;;;;;5.10;3.80;;;;;;;22.67;52.48;100628.09;131085;1256;107517;-80
2023/06/24 13:00:05;;;;;;;3.90;3.40;;;;;;;22.50;53.31;100625.94;131090;1251;107232;-80
2023/06/24 13:03:10;;;;;;;4.60;3.30;;;;;;;22.34;53.69;100623.69;131221;1254;107452;-80
2023/06/24 13:06:16;;;;;;;5.90;3.80;;;;;;;22.28;54.76;100624.50;131421;1253;107524;-79
2023/06/24 13:09:21;;;;;;;5.80;3.80;;;;;;;22.26;55.28;100622.17;131068;1253;107618;-79
2023/06/24 13:12:27;;;;;;;5.30;3.60;;;;;;;22.14;55.58;100627.16;131073;1263;107581;-79
2023/06/24 13:15:33;;;;;;;4.50;3.80;;;;;;;21.91;56.27;100629.16;131217;1251;108633;-79
2023/06/24 13:18:38;;;;;;;5.70;3.80;;;;;;;21.76;57.47;100629.89;131205;1258;107521;-79
2023/06/24 13:21:44;;;;;;;4.60;4.20;;;;;;;21.67;58.42;100634.32;130999;1254;107639;-79
2023/06/24 13:24:49;;;;;;;4.50;4.10;;;;;;;21.59;59.28;100635.02;131063;1259;107392;-79
2023/06/24 13:27:55;;;;;;;6.30;4.60;;;;;;;21.46;59.71;100635.75;131044;1253;107481;-79
2023/06/24 13:31:03;;;;;;;6.50;5.00;;;;;;;21.37;60.63;100635.81;131054;1254;107394;-81
2023/06/24 13:34:08;;;;;;;5.80;4.90;;;;;;;21.28;60.81;100633.46;131382;1254;107172;-81
2023/06/24 13:37:14;;;;;;;5.90;5.30;;;;;;;21.26;61.09;100630.75;131388;1254;107368;-78
2023/06/24 13:40:19;;;;;;;5.90;5.10;;;;;;;21.26;61.33;100633.98;131397;1254;107480;-79
2023/06/24 13:43:25;;;;;;;5.80;4.90;;;;;;;21.20;61.84;100632.95;131003;1263;107342;-78
2023/06/24 13:46:32;;;;;;;6.30;5.30;;;;;;;21.19;62.07;100635.66;131294;1254;106529;-81
2023/06/24 13:49:37;;;;;;;5.50;4.70;;;;;;;21.11;62.42;100632.50;131414;1253;107553;-81
2023/06/24 13:52:43;;;;;;;5.90;4.60;;;;;;;21.05;63.03;100630.81;131410;1251;107609;-80
2023/06/24 13:55:48;;;;;;;7.80;5.40;;;;;;;21.01;63.39;100625.99;131225;1250;106269;-79
2023/06/24 13:58:55;;;;;;;5.80;5.10;;;;;;;20.88;63.55;100624.77;131325;1263;107142;-79
2023/06/24 14:02:00;;;;;;;7.30;5.60;;;;;;;20.74;63.89;100627.38;131257;1254;107494;-79
2023/06/24 14:05:08;;;;;;;6.50;5.80;;;;;;;20.65;64.27;100635.79;131130;1263;106133;-79
2023/06/24 14:08:14;;;;;;;8.10;5.60;;;;;;;20.53;64.85;100634.13;131005;1253;107612;-79
2023/06/24 14:11:20;;;;;;;6.10;5.20;;;;;;;20.45;65.12;100634.63;131343;1251;106698;-79